Time;durP1;ratioP1;P1;durP2;ratioP2;P2;SDS_P1;SDS_P2;PMS_P1;PMS_P2;Temp;Humidity;BMP_temperature;BMP_pressure;BME280_temperature;BME280_humidity;BME280_pressure;Samples;Min_cycle;Max_cycle;Signal;HPM_P1;HPM_P2
2024/01/28 00:00:32;;;;;;;20.98;12.23;;;;;;;;;;5035422;28;20114;-67
2024/01/28 00:02:58;;;;;;;19.20;10.73;;;;;;;;;;5017698;28;20158;-69
2024/01/28 00:05:23;;;;;;;19.85;10.82;;;;;;;;;;5017413;28;20065;-65
2024/01/28 00:07:49;;;;;;;21.55;12.57;;;;;;;;;;5035993;28;20107;-64
2024/01/28 00:10:14;;;;;;;18.45;11.10;;;;;;;;;;5037603;28;20080;-66
2024/01/28 00:12:40;;;;;;;17.15;10.50;;;;;;;;;;5037221;28;20030;-66
2024/01/28 00:15:06;;;;;;;19.20;10.07;;;;;;;;;;5036905;28;20112;-67
2024/01/28 00:17:31;;;;;;;20.52;11.07;;;;;;;;;;5037127;28;20428;-67
2024/01/28 00:19:57;;;;;;;23.73;15.05;;;;;;;;;;5036785;28;20041;-65
2024/01/28 00:22:23;;;;;;;24.85;17.05;;;;;;;;;;5037026;28;20029;-65
2024/01/28 00:24:48;;;;;;;30.08;17.45;;;;;;;;;;5035350;28;20041;-67
2024/01/28 00:27:14;;;;;;;28.42;18.92;;;;;;;;;;5036963;28;20191;-67
2024/01/28 00:29:39;;;;;;;31.70;18.25;;;;;;;;;;5019969;28;20369;-64
2024/01/28 00:32:05;;;;;;;32.55;18.38;;;;;;;;;;5036542;28;20033;-67
2024/01/28 00:34:30;;;;;;;37.45;21.67;;;;;;;;;;5051998;28;20098;-67
2024/01/28 00:36:56;;;;;;;39.35;22.38;;;;;;;;;;5036745;28;20033;-66
2024/01/28 00:39:21;;;;;;;40.10;21.65;;;;;;;;;;5036739;28;20029;-67
2024/01/28 00:41:46;;;;;;;37.00;20.70;;;;;;;;;;5036358;28;20034;-65
2024/01/28 00:44:12;;;;;;;37.55;20.30;;;;;;;;;;5036282;28;20052;-63
2024/01/28 00:46:37;;;;;;;31.13;17.55;;;;;;;;;;5036565;28;20036;-66
2024/01/28 00:49:03;;;;;;;24.40;15.43;;;;;;;;;;5018528;28;20021;-65
2024/01/28 00:51:31;;;;;;;27.45;16.52;;;;;;;;;;5036759;28;20358;-66
2024/01/28 00:53:57;;;;;;;23.85;14.88;;;;;;;;;;5036478;28;20507;-67
2024/01/28 00:56:23;;;;;;;27.83;16.13;;;;;;;;;;5034879;28;20025;-67
2024/01/28 00:58:49;;;;;;;31.50;17.33;;;;;;;;;;5036069;28;20016;-66
2024/01/28 01:01:14;;;;;;;31.60;18.80;;;;;;;;;;5036350;28;20041;-67
2024/01/28 01:03:39;;;;;;;30.15;19.73;;;;;;;;;;5017650;28;20029;-68
2024/01/28 01:06:05;;;;;;;30.02;18.65;;;;;;;;;;5035450;28;20026;-67
2024/01/28 01:08:32;;;;;;;23.95;16.23;;;;;;;;;;5036245;28;20446;-66
2024/01/28 01:11:03;;;;;;;28.70;14.65;;;;;;;;;;5018013;28;20481;-66
2024/01/28 01:13:32;;;;;;;23.85;13.20;;;;;;;;;;5034680;28;20025;-66
2024/01/28 01:15:57;;;;;;;27.92;13.63;;;;;;;;;;5018058;28;20018;-67
2024/01/28 01:18:24;;;;;;;25.67;13.35;;;;;;;;;;5018683;28;20044;-68
2024/01/28 01:20:49;;;;;;;24.48;13.68;;;;;;;;;;5035995;28;20044;-68
2024/01/28 01:23:15;;;;;;;20.60;12.45;;;;;;;;;;5036198;28;20466;-68
2024/01/28 01:25:41;;;;;;;23.08;13.02;;;;;;;;;;5036040;28;20032;-68
2024/01/28 01:28:06;;;;;;;23.23;13.23;;;;;;;;;;5035879;28;20376;-68
2024/01/28 01:30:31;;;;;;;20.95;13.05;;;;;;;;;;5035784;28;20095;-67
2024/01/28 01:32:57;;;;;;;30.17;16.35;;;;;;;;;;5035744;28;20542;-66
2024/01/28 01:35:26;;;;;;;28.33;15.70;;;;;;;;;;5017733;28;20473;-67
2024/01/28 01:37:54;;;;;;;23.58;11.85;;;;;;;;;;5032182;28;20033;-67
2024/01/28 01:40:20;;;;;;;30.58;14.38;;;;;;;;;;5033192;28;20520;-67
2024/01/28 01:42:45;;;;;;;21.48;12.02;;;;;;;;;;5033436;28;20064;-67
2024/01/28 01:45:12;;;;;;;21.90;12.93;;;;;;;;;;5033767;28;20033;-67
2024/01/28 01:47:37;;;;;;;31.02;14.38;;;;;;;;;;5033829;28;20021;-67
2024/01/28 01:50:03;;;;;;;30.70;13.38;;;;;;;;;;5034373;28;20033;-67
2024/01/28 01:52:29;;;;;;;25.05;11.88;;;;;;;;;;5033758;28;20465;-67
2024/01/28 01:54:55;;;;;;;25.35;12.73;;;;;;;;;;5032386;28;20088;-66
2024/01/28 01:57:20;;;;;;;22.58;11.95;;;;;;;;;;5032930;28;20052;-66
2024/01/28 01:59:46;;;;;;;24.40;13.60;;;;;;;;;;5032853;28;20021;-67
2024/01/28 02:02:11;;;;;;;52.80;21.60;;;;;;;;;;5033179;28;20044;-66
2024/01/28 02:04:37;;;;;;;37.13;18.30;;;;;;;;;;5014901;28;20052;-66
2024/01/28 02:07:02;;;;;;;28.95;14.25;;;;;;;;;;5032985;28;20058;-67
2024/01/28 02:09:28;;;;;;;28.27;14.85;;;;;;;;;;5033332;28;20384;-66
2024/01/28 02:11:54;;;;;;;28.77;16.45;;;;;;;;;;5033550;28;20512;-67
2024/01/28 02:14:20;;;;;;;26.23;15.02;;;;;;;;;;5034933;28;20037;-67
2024/01/28 02:16:48;;;;;;;31.50;16.13;;;;;;;;;;5034762;28;20108;-66
2024/01/28 02:19:13;;;;;;;31.25;17.75;;;;;;;;;;5034584;28;20059;-66
2024/01/28 02:21:39;;;;;;;22.75;12.45;;;;;;;;;;5034797;28;20034;-66
2024/01/28 02:24:04;;;;;;;21.45;11.55;;;;;;;;;;5034678;28;20354;-66
2024/01/28 02:26:30;;;;;;;25.40;12.93;;;;;;;;;;5033215;28;20120;-68
2024/01/28 02:28:55;;;;;;;26.35;13.85;;;;;;;;;;5033817;28;20029;-66
2024/01/28 02:31:21;;;;;;;24.55;14.50;;;;;;;;;;5034881;28;20033;-65
2024/01/28 02:33:46;;;;;;;24.20;13.43;;;;;;;;;;5034887;28;20026;-65
2024/01/28 02:36:11;;;;;;;23.48;14.68;;;;;;;;;;5017709;28;20026;-64
2024/01/28 02:38:37;;;;;;;21.85;11.60;;;;;;;;;;5016573;28;20052;-64
2024/01/28 02:41:02;;;;;;;15.93;8.95;;;;;;;;;;5034444;28;20037;-64
2024/01/28 02:43:28;;;;;;;13.52;7.40;;;;;;;;;;5034689;28;20025;-64
2024/01/28 02:45:53;;;;;;;14.60;7.50;;;;;;;;;;5033993;28;20029;-65
2024/01/28 02:48:18;;;;;;;11.45;6.93;;;;;;;;;;5033939;28;20039;-64
2024/01/28 02:50:44;;;;;;;12.38;7.38;;;;;;;;;;5032983;28;20544;-64
2024/01/28 02:53:12;;;;;;;12.35;6.88;;;;;;;;;;5033119;28;20025;-64
2024/01/28 02:55:38;;;;;;;11.48;6.60;;;;;;;;;;5032852;28;20038;-64
2024/01/28 02:58:03;;;;;;;11.63;6.97;;;;;;;;;;5031807;28;20033;-64
2024/01/28 03:00:29;;;;;;;13.02;7.40;;;;;;;;;;5031832;28;20116;-65
2024/01/28 03:02:54;;;;;;;18.85;9.20;;;;;;;;;;5047112;28;20038;-65
2024/01/28 03:05:20;;;;;;;18.40;8.43;;;;;;;;;;5031777;28;20033;-64
2024/01/28 03:07:45;;;;;;;15.95;8.75;;;;;;;;;;5033070;28;20025;-65
2024/01/28 03:10:11;;;;;;;16.63;8.85;;;;;;;;;;5049145;28;20030;-65
2024/01/28 03:12:36;;;;;;;11.80;7.28;;;;;;;;;;5032891;28;20069;-64
2024/01/28 03:15:02;;;;;;;15.82;8.45;;;;;;;;;;5049075;28;20026;-64
2024/01/28 03:17:28;;;;;;;14.73;8.50;;;;;;;;;;5033917;28;20377;-64
2024/01/28 03:19:53;;;;;;;17.38;8.43;;;;;;;;;;5033616;28;20040;-64
2024/01/28 03:22:19;;;;;;;16.60;8.07;;;;;;;;;;5033884;28;20034;-64
2024/01/28 03:24:46;;;;;;;14.45;8.07;;;;;;;;;;5033724;28;20052;-64
2024/01/28 03:27:11;;;;;;;13.60;8.20;;;;;;;;;;5033317;28;20091;-66
2024/01/28 03:29:36;;;;;;;16.40;11.10;;;;;;;;;;5033809;28;20065;-66
2024/01/28 03:32:02;;;;;;;17.88;9.80;;;;;;;;;;5016425;28;20034;-66
2024/01/28 03:34:28;;;;;;;18.50;10.35;;;;;;;;;;5033428;28;20033;-66
2024/01/28 03:36:53;;;;;;;17.98;11.18;;;;;;;;;;5034008;28;20044;-66
2024/01/28 03:39:18;;;;;;;21.73;13.65;;;;;;;;;;5033961;28;20128;-66
2024/01/28 03:41:44;;;;;;;19.48;12.10;;;;;;;;;;5033389;28;20025;-67
2024/01/28 03:44:09;;;;;;;13.68;8.90;;;;;;;;;;5033843;28;20033;-67
2024/01/28 03:46:37;;;;;;;16.08;9.43;;;;;;;;;;5033942;28;20040;-67
2024/01/28 03:49:03;;;;;;;16.65;9.43;;;;;;;;;;5033609;28;20017;-68
2024/01/28 03:51:28;;;;;;;13.93;8.73;;;;;;;;;;5033816;28;20079;-66
2024/01/28 03:53:53;;;;;;;15.75;8.57;;;;;;;;;;5033844;28;20033;-65
2024/01/28 03:56:19;;;;;;;15.43;8.63;;;;;;;;;;5033237;28;20029;-65
2024/01/28 03:58:44;;;;;;;18.73;10.75;;;;;;;;;;5033801;28;20040;-67
2024/01/28 04:01:10;;;;;;;17.50;10.80;;;;;;;;;;5033496;28;20026;-67
2024/01/28 04:03:35;;;;;;;15.05;9.75;;;;;;;;;;5033450;28;20368;-66
2024/01/28 04:06:01;;;;;;;17.02;10.00;;;;;;;;;;5033484;28;20080;-57
2024/01/28 04:08:26;;;;;;;14.65;7.47;;;;;;;;;;5032340;23;20054;-91
2024/01/28 04:10:52;;;;;;;12.05;8.57;;;;;;;;;;4980136;28;20469;-92
2024/01/28 04:13:17;;;;;;;11.02;7.35;;;;;;;;;;4996770;28;20496;-92
2024/01/28 04:15:43;;;;;;;10.95;7.18;;;;;;;;;;4980225;28;20065;-92
2024/01/28 04:18:08;;;;;;;10.18;6.38;;;;;;;;;;4996675;28;20033;-92
2024/01/28 04:20:34;;;;;;;6.55;5.22;;;;;;;;;;4980621;28;20018;-91
2024/01/28 04:22:59;;;;;;;6.65;5.63;;;;;;;;;;4980395;28;20091;-91
2024/01/28 04:25:26;;;;;;;8.77;5.72;;;;;;;;;;4996661;28;20076;-92
2024/01/28 04:27:51;;;;;;;8.60;5.55;;;;;;;;;;4980428;28;20030;-92
2024/01/28 04:30:17;;;;;;;9.02;5.50;;;;;;;;;;4996776;28;20473;-92
2024/01/28 04:32:46;;;;;;;10.50;5.70;;;;;;;;;;4996970;28;20022;-92
2024/01/28 04:35:14;;;;;;;10.18;5.75;;;;;;;;;;5013286;28;20025;-93
2024/01/28 04:37:40;;;;;;;7.88;5.47;;;;;;;;;;5013165;28;20037;-91
2024/01/28 04:40:06;;;;;;;9.02;5.53;;;;;;;;;;4981589;28;20022;-92
2024/01/28 04:42:32;;;;;;;9.43;5.97;;;;;;;;;;5016493;28;20052;-93
2024/01/28 04:44:59;;;;;;;8.65;5.30;;;;;;;;;;4999870;28;20041;-93
2024/01/28 04:47:25;;;;;;;6.05;4.28;;;;;;;;;;5000051;28;20030;-91
2024/01/28 04:49:50;;;;;;;5.35;4.28;;;;;;;;;;4983792;28;20465;-93
2024/01/28 04:52:16;;;;;;;4.13;3.30;;;;;;;;;;5000075;28;20049;-94
2024/01/28 04:54:41;;;;;;;5.05;3.88;;;;;;;;;;5016306;28;20072;-93
2024/01/28 04:57:07;;;;;;;6.53;3.30;;;;;;;;;;5016239;28;20018;-92
2024/01/28 04:59:34;;;;;;;6.20;3.60;;;;;;;;;;4983989;28;20049;-91
2024/01/28 05:02:00;;;;;;;5.03;3.03;;;;;;;;;;4983124;28;20477;-91
2024/01/28 05:04:25;;;;;;;4.20;3.10;;;;;;;;;;4999578;28;20033;-92
2024/01/28 05:06:51;;;;;;;3.55;2.67;;;;;;;;;;4983551;28;20030;-92
2024/01/28 05:09:19;;;;;;;5.45;2.90;;;;;;;;;;5015630;28;20058;-92
2024/01/28 05:11:44;;;;;;;4.22;2.95;;;;;;;;;;4999522;28;20026;-91
2024/01/28 05:14:10;;;;;;;4.30;2.75;;;;;;;;;;5016087;28;20060;-92
2024/01/28 05:16:35;;;;;;;4.93;3.35;;;;;;;;;;4983252;28;20022;-91
2024/01/28 05:19:02;;;;;;;4.57;3.00;;;;;;;;;;4982976;28;20480;-92
2024/01/28 05:21:27;;;;;;;4.93;2.85;;;;;;;;;;4999420;28;20030;-91
2024/01/28 05:23:52;;;;;;;4.25;3.08;;;;;;;;;;4999307;28;20029;-91
2024/01/28 05:26:18;;;;;;;6.85;3.30;;;;;;;;;;4999425;28;20034;-91
2024/01/28 05:28:46;;;;;;;4.03;2.72;;;;;;;;;;5015738;28;20053;-91
2024/01/28 05:31:12;;;;;;;6.13;2.83;;;;;;;;;;5015910;28;20432;-92
2024/01/28 05:33:37;;;;;;;5.13;2.85;;;;;;;;;;4983008;28;20137;-90
2024/01/28 05:36:21;;;;;;;4.47;2.80;;;;;;;;;;4982989;28;20030;-91
2024/01/28 05:38:47;;;;;;;5.32;3.22;;;;;;;;;;4982969;28;20030;-92
2024/01/28 05:41:12;;;;;;;5.97;2.88;;;;;;;;;;4999042;28;20479;-91
2024/01/28 05:43:38;;;;;;;4.70;3.10;;;;;;;;;;4999026;28;20018;-93
2024/01/28 05:46:06;;;;;;;4.50;2.83;;;;;;;;;;4998830;28;20042;-92
2024/01/28 05:48:35;;;;;;;6.07;3.13;;;;;;;;;;4998983;28;20469;-91
2024/01/28 05:51:00;;;;;;;3.85;3.10;;;;;;;;;;5014773;28;20030;-91
2024/01/28 05:53:26;;;;;;;4.95;3.20;;;;;;;;;;4982194;28;20640;-92
2024/01/28 05:55:52;;;;;;;6.32;2.88;;;;;;;;;;4998411;28;20503;-92
2024/01/28 05:58:20;;;;;;;6.57;3.03;;;;;;;;;;5015421;28;20428;-92
2024/01/28 06:00:46;;;;;;;3.83;2.72;;;;;;;;;;4998802;28;20041;-92
2024/01/28 06:03:11;;;;;;;5.65;3.28;;;;;;;;;;5014969;28;20030;-92
2024/01/28 06:05:37;;;;;;;4.32;2.80;;;;;;;;;;5014482;28;20034;-91
2024/01/28 06:08:02;;;;;;;6.45;2.67;;;;;;;;;;5013959;28;20049;-92
2024/01/28 06:10:28;;;;;;;4.07;2.65;;;;;;;;;;4982006;28;20121;-91
2024/01/28 06:12:56;;;;;;;6.93;3.42;;;;;;;;;;4981785;28;20120;-93
2024/01/28 06:15:21;;;;;;;5.10;3.95;;;;;;;;;;4981852;28;20026;-92
2024/01/28 06:17:47;;;;;;;7.82;4.10;;;;;;;;;;4981865;28;20022;-92
2024/01/28 06:20:12;;;;;;;5.00;3.20;;;;;;;;;;5014745;28;20076;-92
2024/01/28 06:22:50;;;;;;;7.43;3.22;;;;;;;;;;4983626;28;20058;-93
2024/01/28 06:25:18;;;;;;;7.90;3.25;;;;;;;;;;4998185;28;20089;-94
2024/01/28 06:27:48;;;;;;;8.63;3.88;;;;;;;;;;4998261;28;20037;-93
2024/01/28 06:30:39;;;;;;;8.32;3.80;;;;;;;;;;5014215;28;20022;-94
2024/01/28 06:33:05;;;;;;;5.97;3.47;;;;;;;;;;4998584;28;20034;-92
2024/01/28 06:35:30;;;;;;;7.53;3.75;;;;;;;;;;4981514;28;20129;-93
2024/01/28 06:37:56;;;;;;;5.50;3.10;;;;;;;;;;4981646;28;20034;-92
2024/01/28 06:40:21;;;;;;;7.95;3.88;;;;;;;;;;5014326;28;20432;-93
2024/01/28 06:42:49;;;;;;;5.20;3.33;;;;;;;;;;4998087;28;20034;-93
2024/01/28 06:45:15;;;;;;;4.53;3.42;;;;;;;;;;5013769;28;20080;-93
2024/01/28 06:47:41;;;;;;;7.32;3.80;;;;;;;;;;5014232;28;20030;-93
2024/01/28 06:50:09;;;;;;;6.15;3.72;;;;;;;;;;5014175;28;20030;-92
2024/01/28 06:52:35;;;;;;;6.13;3.55;;;;;;;;;;5014058;28;20034;-92
2024/01/28 06:55:00;;;;;;;6.03;3.55;;;;;;;;;;4997693;28;20083;-93
2024/01/28 06:57:25;;;;;;;6.53;3.78;;;;;;;;;;4981704;28;20029;-92
2024/01/28 06:59:51;;;;;;;6.90;3.72;;;;;;;;;;4981326;28;20117;-91
2024/01/28 07:02:17;;;;;;;7.88;4.35;;;;;;;;;;5013445;28;20072;-92
2024/01/28 07:04:47;;;;;;;10.60;5.95;;;;;;;;;;4980834;28;20551;-92
2024/01/28 07:07:15;;;;;;;7.15;4.85;;;;;;;;;;5014512;28;20133;-94
2024/01/28 07:09:51;;;;;;;13.18;5.35;;;;;;;;;;4997653;28;20030;-91
2024/01/28 07:12:19;;;;;;;20.85;9.52;;;;;;;;;;4997484;28;20116;-92
2024/01/28 07:14:45;;;;;;;16.42;7.63;;;;;;;;;;4981471;28;20057;-92
2024/01/28 07:17:22;;;;;;;9.05;4.20;;;;;;;;;;4997429;28;20500;-92
2024/01/28 07:19:53;;;;;;;6.50;4.00;;;;;;;;;;4997351;28;20056;-95
2024/01/28 07:22:21;;;;;;;6.50;3.38;;;;;;;;;;5013740;28;20056;-92
2024/01/28 07:24:49;;;;;;;6.35;3.92;;;;;;;;;;4997385;28;20121;-95
2024/01/28 07:27:43;;;;;;;6.75;4.05;;;;;;;;;;4997984;28;20030;-92
2024/01/28 07:30:21;;;;;;;6.38;3.58;;;;;;;;;;4954515;28;20031;-93
2024/01/28 07:32:46;;;;;;;7.88;4.50;;;;;;;;;;5012131;28;20042;-92
2024/01/28 07:35:12;;;;;;;8.45;4.75;;;;;;;;;;4997294;28;20037;-94
2024/01/28 07:37:37;;;;;;;9.23;5.03;;;;;;;;;;4997797;28;20030;-93
2024/01/28 07:40:04;;;;;;;7.93;5.38;;;;;;;;;;4980769;28;20112;-93
2024/01/28 07:42:29;;;;;;;8.15;5.72;;;;;;;;;;4980863;28;20094;-92
2024/01/28 07:44:55;;;;;;;8.93;5.90;;;;;;;;;;4996921;28;20053;-92
2024/01/28 07:47:20;;;;;;;14.65;9.60;;;;;;;;;;4996434;28;20473;-92
2024/01/28 07:49:46;;;;;;;19.25;11.77;;;;;;;;;;4980556;28;20060;-92
2024/01/28 07:52:14;;;;;;;28.48;15.75;;;;;;;;;;4980152;28;20083;-93
2024/01/28 07:54:56;;;;;;;13.95;9.10;;;;;;;;;;4998347;28;20384;-93
2024/01/28 07:57:23;;;;;;;15.27;8.05;;;;;;;;;;4981082;28;20032;-92
2024/01/28 07:59:49;;;;;;;20.77;9.98;;;;;;;;;;4980473;28;20014;-91
2024/01/28 08:02:21;;;;;;;13.57;9.50;;;;;;;;;;4980644;28;20044;-93
2024/01/28 08:08:47;;;;;;;14.13;9.63;;;;;;;;;;4900350;29;20138;-93
2024/01/28 08:11:46;;;;;;;14.90;8.45;;;;;;;;;;4953442;29;20047;-94
2024/01/28 08:14:27;;;;;;;15.77;9.13;;;;;;;;;;4972785;28;20133;-93
2024/01/28 08:21:09;;;;;;;17.38;9.07;;;;;;;;;;4961177;29;20091;-94
2024/01/28 08:23:35;;;;;;;15.32;8.48;;;;;;;;;;4923004;29;20032;-92
2024/01/28 08:26:15;;;;;;;9.52;5.30;;;;;;;;;;4931758;29;20493;-92
2024/01/28 08:29:06;;;;;;;8.00;4.20;;;;;;;;;;4959039;28;20042;-95
2024/01/28 08:35:36;;;;;;;6.50;4.28;;;;;;;;;;4936163;29;20039;-92
2024/01/28 08:48:14;;;;;;;9.63;5.50;;;;;;;;;;5018614;23;20092;-67
2024/01/28 08:50:39;;;;;;;9.68;5.72;;;;;;;;;;5012067;28;20513;-67
2024/01/28 08:53:05;;;;;;;12.13;6.20;;;;;;;;;;5012309;28;20034;-67
2024/01/28 08:55:30;;;;;;;10.40;6.22;;;;;;;;;;5011082;28;20505;-71
2024/01/28 08:57:55;;;;;;;11.57;6.28;;;;;;;;;;5012434;28;20041;-65
2024/01/28 09:00:22;;;;;;;11.65;6.15;;;;;;;;;;5011359;28;20042;-65
2024/01/28 09:02:47;;;;;;;14.30;7.45;;;;;;;;;;5012448;28;20037;-65
2024/01/28 09:05:13;;;;;;;14.80;7.28;;;;;;;;;;5012642;28;20038;-66
2024/01/28 09:07:39;;;;;;;8.85;5.70;;;;;;;;;;5012348;28;20053;-57
2024/01/28 09:10:05;;;;;;;14.23;6.70;;;;;;;;;;5012561;28;20038;-57
2024/01/28 09:12:30;;;;;;;13.50;6.57;;;;;;;;;;5012663;28;20033;-57
2024/01/28 09:14:56;;;;;;;9.93;6.05;;;;;;;;;;5012586;28;20543;-57
2024/01/28 09:17:21;;;;;;;8.82;5.55;;;;;;;;;;5012634;28;20036;-57
2024/01/28 09:19:46;;;;;;;11.88;4.97;;;;;;;;;;5012893;28;20033;-57
2024/01/28 09:22:12;;;;;;;8.43;4.90;;;;;;;;;;5012345;28;20046;-57
2024/01/28 09:24:38;;;;;;;6.45;4.90;;;;;;;;;;5010758;28;20040;-57
2024/01/28 09:27:04;;;;;;;9.90;5.15;;;;;;;;;;5011504;28;20049;-57
2024/01/28 09:29:30;;;;;;;9.32;5.40;;;;;;;;;;5012502;28;20033;-57
2024/01/28 09:31:59;;;;;;;13.30;6.63;;;;;;;;;;5012284;28;20030;-57
2024/01/28 09:34:24;;;;;;;10.20;6.78;;;;;;;;;;5012215;28;20141;-57
2024/01/28 09:36:50;;;;;;;10.82;6.88;;;;;;;;;;5011958;28;20464;-57
2024/01/28 09:39:15;;;;;;;14.70;7.32;;;;;;;;;;5011959;28;20041;-57
2024/01/28 09:41:43;;;;;;;11.85;6.78;;;;;;;;;;5012053;28;20026;-57
2024/01/28 09:44:08;;;;;;;11.65;6.63;;;;;;;;;;5011798;28;20486;-57
2024/01/28 09:46:34;;;;;;;12.05;6.82;;;;;;;;;;5011594;28;20079;-57
2024/01/28 09:49:00;;;;;;;14.40;7.50;;;;;;;;;;5011649;28;20032;-57
2024/01/28 09:51:26;;;;;;;12.80;7.40;;;;;;;;;;5012086;28;20030;-57
2024/01/28 09:53:51;;;;;;;12.43;8.23;;;;;;;;;;5012816;28;20072;-57
2024/01/28 09:56:17;;;;;;;16.92;8.95;;;;;;;;;;5015489;28;20378;-55
2024/01/28 09:58:43;;;;;;;15.65;8.52;;;;;;;;;;5015526;28;20026;-55
2024/01/28 10:01:12;;;;;;;14.63;7.95;;;;;;;;;;5015481;28;20069;-55
2024/01/28 10:03:38;;;;;;;17.20;9.32;;;;;;;;;;5015194;28;20053;-55
2024/01/28 10:06:04;;;;;;;17.40;9.73;;;;;;;;;;5015577;28;20462;-55
2024/01/28 10:08:30;;;;;;;19.70;9.85;;;;;;;;;;5014607;28;20057;-55
2024/01/28 10:10:55;;;;;;;18.92;9.82;;;;;;;;;;5011735;28;20038;-55
2024/01/28 10:13:21;;;;;;;23.85;12.52;;;;;;;;;;5011425;28;20117;-55
2024/01/28 10:15:54;;;;;;;20.45;12.52;;;;;;;;;;5011190;28;20038;-55
2024/01/28 10:18:21;;;;;;;23.05;13.45;;;;;;;;;;5010410;28;20036;-55
2024/01/28 10:20:47;;;;;;;21.58;13.27;;;;;;;;;;5010618;28;20240;-55
2024/01/28 10:23:13;;;;;;;24.77;13.38;;;;;;;;;;5009880;28;20041;-55
2024/01/28 10:25:38;;;;;;;24.63;13.55;;;;;;;;;;5008619;28;20040;-55
2024/01/28 10:28:04;;;;;;;19.80;10.73;;;;;;;;;;5009822;28;20030;-57
2024/01/28 10:30:29;;;;;;;17.00;10.05;;;;;;;;;;5011182;28;20033;-57
2024/01/28 10:32:55;;;;;;;15.10;8.65;;;;;;;;;;5012086;28;20469;-57
2024/01/28 10:35:20;;;;;;;16.65;8.93;;;;;;;;;;5012497;28;20500;-57
2024/01/28 10:37:49;;;;;;;19.88;11.73;;;;;;;;;;5012501;28;20033;-57
2024/01/28 10:40:15;;;;;;;25.10;13.63;;;;;;;;;;5012485;28;20036;-57
2024/01/28 10:42:41;;;;;;;21.25;11.93;;;;;;;;;;5013535;28;20038;-57
2024/01/28 10:45:08;;;;;;;13.57;8.00;;;;;;;;;;4997152;28;20034;-57
2024/01/28 10:47:35;;;;;;;10.82;7.03;;;;;;;;;;5015224;28;20113;-57
2024/01/28 10:50:04;;;;;;;12.57;7.28;;;;;;;;;;5014370;28;20109;-57
2024/01/28 10:52:32;;;;;;;9.80;6.07;;;;;;;;;;5014588;28;20101;-57
2024/01/28 10:54:57;;;;;;;9.63;6.30;;;;;;;;;;5013671;28;20026;-57
2024/01/28 10:57:23;;;;;;;11.73;6.78;;;;;;;;;;5014410;28;20048;-57
2024/01/28 10:59:51;;;;;;;11.70;6.35;;;;;;;;;;5014738;28;20036;-57
2024/01/28 11:02:19;;;;;;;10.57;6.00;;;;;;;;;;5014182;28;20030;-57
2024/01/28 11:04:45;;;;;;;9.60;6.05;;;;;;;;;;5014064;28;20018;-58
2024/01/28 11:07:12;;;;;;;14.20;6.82;;;;;;;;;;5014337;28;20125;-58
2024/01/28 11:09:37;;;;;;;12.20;6.57;;;;;;;;;;5013978;28;20057;-57
2024/01/28 11:12:03;;;;;;;12.60;6.25;;;;;;;;;;5013990;28;20052;-58
2024/01/28 11:14:28;;;;;;;12.70;6.82;;;;;;;;;;5014253;28;20029;-57
2024/01/28 11:16:55;;;;;;;10.05;6.18;;;;;;;;;;5013862;28;20046;-57
2024/01/28 11:19:26;;;;;;;12.68;6.53;;;;;;;;;;5013907;28;20076;-57
2024/01/28 11:21:52;;;;;;;13.70;6.63;;;;;;;;;;5014441;28;20038;-57
2024/01/28 11:24:19;;;;;;;11.85;7.53;;;;;;;;;;5014344;28;20454;-57
2024/01/28 11:26:55;;;;;;;10.60;6.60;;;;;;;;;;5013790;28;20018;-58
2024/01/28 11:29:20;;;;;;;12.65;7.30;;;;;;;;;;5014125;28;20462;-57
2024/01/28 11:31:46;;;;;;;9.40;6.10;;;;;;;;;;5013765;28;20076;-57
2024/01/28 11:34:26;;;;;;;8.30;4.95;;;;;;;;;;5013687;28;20033;-57
2024/01/28 11:36:52;;;;;;;7.70;4.15;;;;;;;;;;5014035;28;20038;-57
2024/01/28 11:39:45;;;;;;;6.93;4.25;;;;;;;;;;5013974;28;20101;-57
2024/01/28 11:42:10;;;;;;;7.13;3.97;;;;;;;;;;5011127;28;20045;-57
2024/01/28 11:44:37;;;;;;;4.88;3.72;;;;;;;;;;5012588;23;20057;-57
2024/01/28 11:47:03;;;;;;;5.25;3.67;;;;;;;;;;5055644;23;20144;-57
2024/01/28 11:49:56;;;;;;;5.88;3.85;;;;;;;;;;5010089;23;20145;-65
2024/01/28 11:52:21;;;;;;;4.53;3.40;;;;;;;;;;5004948;23;20082;-58
2024/01/28 11:54:47;;;;;;;6.15;3.78;;;;;;;;;;4997312;23;20524;-65
2024/01/28 11:57:13;;;;;;;7.35;3.50;;;;;;;;;;4998264;28;20489;-65
2024/01/28 11:59:39;;;;;;;5.85;4.63;;;;;;;;;;4996661;28;20026;-65
2024/01/28 12:02:08;;;;;;;9.10;4.80;;;;;;;;;;4980430;28;20470;-65
2024/01/28 12:04:34;;;;;;;9.60;4.20;;;;;;;;;;4977513;28;20552;-65
2024/01/28 12:07:00;;;;;;;6.50;3.60;;;;;;;;;;4996623;28;20026;-64
2024/01/28 12:09:27;;;;;;;8.18;3.80;;;;;;;;;;4997982;28;20026;-65
2024/01/28 12:11:52;;;;;;;5.40;3.90;;;;;;;;;;4998251;28;20069;-65
2024/01/28 12:14:18;;;;;;;6.40;3.88;;;;;;;;;;4997902;28;20431;-65
2024/01/28 12:16:44;;;;;;;6.25;3.50;;;;;;;;;;4980275;28;20133;-65
2024/01/28 12:19:14;;;;;;;6.13;3.80;;;;;;;;;;4997834;28;20105;-65
2024/01/28 12:21:39;;;;;;;5.35;3.72;;;;;;;;;;4996904;28;20038;-65
2024/01/28 12:24:05;;;;;;;5.28;3.67;;;;;;;;;;4996047;28;20104;-65
2024/01/28 12:26:32;;;;;;;5.30;3.75;;;;;;;;;;4996158;28;20061;-64
2024/01/28 12:28:58;;;;;;;9.27;5.78;;;;;;;;;;4997851;28;20113;-65
2024/01/28 12:31:25;;;;;;;10.77;6.43;;;;;;;;;;4997610;28;20035;-65
2024/01/28 12:33:50;;;;;;;5.38;4.40;;;;;;;;;;4997530;28;20058;-66
2024/01/28 12:36:15;;;;;;;5.47;3.83;;;;;;;;;;4995967;28;20498;-65
2024/01/28 12:38:41;;;;;;;7.80;3.95;;;;;;;;;;4997162;28;20181;-65
2024/01/28 12:41:07;;;;;;;7.68;4.10;;;;;;;;;;4997381;28;20038;-65
2024/01/28 12:43:32;;;;;;;6.55;4.28;;;;;;;;;;4979694;28;20058;-65
2024/01/28 12:45:58;;;;;;;7.30;4.70;;;;;;;;;;4997246;28;20060;-65
2024/01/28 12:48:23;;;;;;;5.75;4.10;;;;;;;;;;4997292;28;20081;-65
2024/01/28 12:50:49;;;;;;;15.48;9.65;;;;;;;;;;4996935;28;20026;-65
2024/01/28 12:53:16;;;;;;;23.42;13.18;;;;;;;;;;4995652;28;20445;-65
2024/01/28 12:55:42;;;;;;;22.90;13.38;;;;;;;;;;4996005;28;20389;-65
2024/01/28 12:58:07;;;;;;;20.67;11.85;;;;;;;;;;4996836;28;20109;-65
2024/01/28 13:00:33;;;;;;;20.25;13.45;;;;;;;;;;4995598;28;20026;-65
2024/01/28 13:03:00;;;;;;;18.30;11.40;;;;;;;;;;4995846;28;20046;-65
2024/01/28 13:05:25;;;;;;;10.63;6.57;;;;;;;;;;4997108;28;20092;-65
2024/01/28 13:07:51;;;;;;;7.82;5.32;;;;;;;;;;4996926;28;20038;-65
2024/01/28 13:10:16;;;;;;;9.07;4.70;;;;;;;;;;4997134;28;20054;-65
2024/01/28 13:12:43;;;;;;;6.47;4.30;;;;;;;;;;4996824;28;20034;-65
2024/01/28 13:15:09;;;;;;;6.90;4.38;;;;;;;;;;4996512;28;20022;-65
2024/01/28 13:17:35;;;;;;;6.65;4.38;;;;;;;;;;4996733;28;20038;-65
2024/01/28 13:20:03;;;;;;;7.30;4.40;;;;;;;;;;4979060;28;20470;-65
2024/01/28 13:22:28;;;;;;;9.40;4.10;;;;;;;;;;4996636;28;20053;-65
2024/01/28 13:24:54;;;;;;;6.78;4.22;;;;;;;;;;4996578;28;20121;-64
2024/01/28 13:27:20;;;;;;;9.52;4.53;;;;;;;;;;4996861;28;20021;-65
2024/01/28 13:29:45;;;;;;;8.00;4.10;;;;;;;;;;4996241;28;20509;-65
2024/01/28 13:32:11;;;;;;;8.02;4.30;;;;;;;;;;4996525;28;20077;-65
2024/01/28 13:34:36;;;;;;;6.95;3.90;;;;;;;;;;4996139;28;20027;-65
2024/01/28 13:37:02;;;;;;;7.25;4.93;;;;;;;;;;4995028;28;20389;-65
2024/01/28 13:39:28;;;;;;;9.80;4.82;;;;;;;;;;4996633;28;20061;-65
2024/01/28 13:41:53;;;;;;;12.00;5.30;;;;;;;;;;4978630;28;20061;-65
2024/01/28 13:44:19;;;;;;;8.55;4.78;;;;;;;;;;4995955;28;20093;-65
2024/01/28 13:46:44;;;;;;;9.90;5.20;;;;;;;;;;4996512;28;20038;-65
2024/01/28 13:49:10;;;;;;;11.95;5.47;;;;;;;;;;4995545;28;20034;-65
2024/01/28 13:51:37;;;;;;;8.77;5.03;;;;;;;;;;4995837;28;20034;-64
2024/01/28 13:54:02;;;;;;;13.48;5.85;;;;;;;;;;4995884;28;20104;-65
2024/01/28 13:56:28;;;;;;;13.20;6.10;;;;;;;;;;4996072;28;20492;-65
2024/01/28 13:58:53;;;;;;;10.93;6.15;;;;;;;;;;4995766;28;20386;-65
2024/01/28 14:01:19;;;;;;;21.58;11.38;;;;;;;;;;4995679;28;20478;-65
2024/01/28 14:03:44;;;;;;;24.55;13.98;;;;;;;;;;4995665;28;20030;-65
2024/01/28 14:06:10;;;;;;;55.45;25.08;;;;;;;;;;4995735;28;20390;-65
2024/01/28 14:08:35;;;;;;;137.23;52.10;;;;;;;;;;4995813;28;20072;-65
2024/01/28 14:11:01;;;;;;;149.00;58.20;;;;;;;;;;4995476;28;20433;-64
2024/01/28 14:13:27;;;;;;;120.63;46.92;;;;;;;;;;4995363;28;20109;-65
2024/01/28 14:15:52;;;;;;;102.53;40.25;;;;;;;;;;4995387;28;20117;-65
2024/01/28 14:18:18;;;;;;;99.45;43.45;;;;;;;;;;4995880;28;20034;-65
2024/01/28 14:20:43;;;;;;;110.88;48.00;;;;;;;;;;4995535;28;20034;-65
2024/01/28 14:23:08;;;;;;;74.72;32.30;;;;;;;;;;4995186;28;20122;-65
2024/01/28 14:25:34;;;;;;;61.28;25.10;;;;;;;;;;4995113;28;20057;-65
2024/01/28 14:27:59;;;;;;;75.60;30.17;;;;;;;;;;4994295;28;20034;-65
2024/01/28 14:30:25;;;;;;;92.10;37.65;;;;;;;;;;4995395;28;20022;-65
2024/01/28 14:32:50;;;;;;;82.30;35.45;;;;;;;;;;4995331;28;20030;-65
2024/01/28 14:35:15;;;;;;;66.35;35.17;;;;;;;;;;4995003;28;20418;-65
2024/01/28 14:37:41;;;;;;;50.53;29.67;;;;;;;;;;4993759;28;20117;-65
2024/01/28 14:40:07;;;;;;;30.15;18.02;;;;;;;;;;4993692;28;20038;-65
2024/01/28 14:42:32;;;;;;;27.02;15.15;;;;;;;;;;4995501;28;20474;-64
2024/01/28 14:44:58;;;;;;;22.25;14.32;;;;;;;;;;4994816;28;20085;-65
2024/01/28 14:47:23;;;;;;;23.63;14.10;;;;;;;;;;4993945;28;20474;-65
2024/01/28 14:49:49;;;;;;;25.60;16.52;;;;;;;;;;4995103;28;20031;-65